Pioneer Knutsen — LMIK — position and weather

sailwx.info

Track history (hours):
 
Tides and Currents Weather Stations Pressure Air Temp Water Temp Dewpoint Dewpoint Depression Visibility Wind Speed Wind Dir Waves Ship Positions

Pioneer Knutsen

Last reported at 2017-Jun-27 05:00 UTC. Time now 2017-Jun-27 05:25 UTC.
Position N 60°56' E 004°46'.

Length 70 m; draft 3.6 m.

Type: Ship. MMSI: 259393000.

Date/timePositionNaut miles runAvg speedWind from/ knotsBaromVisibWave heightAir tempDewpointWater temp
2017-Jun-27 05:00N 60°56' E 004°46'611.6
2017-Jun-27 04:31N 61°01' E 004°51'612.5
2017-Jun-27 04:00N 61°05' E 005°00'611.5
2017-Jun-27 03:30N 61°11' E 005°01'611.4
2017-Jun-27 03:01N 61°15' E 004°53'611.2
2017-Jun-27 02:30N 61°20' E 004°48'612.0
2017-Jun-27 02:01N 61°26' E 004°53'612.1
2017-Jun-27 01:30N 61°31' E 005°00'611.2
2017-Jun-27 01:00N 61°36' E 004°58'611.6
2017-Jun-27 00:30N 61°42' E 004°57'611.7
2017-Jun-27 00:00N 61°47' E 005°04'612.1
2017-Jun-26 23:30N 61°50' E 005°15'510.0
2017-Jun-26 23:00N 61°54' E 005°09'510.3
2017-Jun-26 22:31N 61°59' E 005°09'611.6
2017-Jun-26 22:00N 62°05' E 005°07'611.7
2017-Jun-26 21:30N 62°10' E 005°04'510.2
2017-Jun-26 21:00N 62°13' E 005°13'510.5
2017-Jun-26 20:30N 62°10' E 005°22'510.3
2017-Jun-26 20:00N 62°11' E 005°33'611.9
2017-Jun-26 19:30N 62°12' E 005°46'612.1
2017-Jun-26 19:00N 62°15' E 005°57'612.6
2017-Jun-26 18:30N 62°20' E 006°05'510.9
2017-Jun-26 18:00N 62°25' E 006°02'510.4
2017-Jun-26 17:30N 62°29' E 006°10'510.1
2017-Jun-26 16:59N 62°29' E 006°21'1 2.2
2017-Jun-26 16:30N 62°29' E 006°23'0 0.0
2017-Jun-26 16:00N 62°29' E 006°23'0 0.0
2017-Jun-26 15:30N 62°29' E 006°23'0 0.0
2017-Jun-26 14:59N 62°29' E 006°23'0 0.0
2017-Jun-26 14:30N 62°29' E 006°23'0 0.0
2017-Jun-26 13:30N 62°29' E 006°23'0 0.0
2017-Jun-26 13:00N 62°29' E 006°23'0 0.0
2017-Jun-26 12:30N 62°29' E 006°23'17 4.0
2017-Jun-26 08:23N 62°17' E 005°60'410.9
2017-Jun-26 08:00N 62°13' E 005°54'611.3
2017-Jun-26 07:30N 62°11' E 005°43'611.5
2017-Jun-26 07:00N 62°12' E 005°31'510.3
2017-Jun-26 06:30N 62°11' E 005°20'510.6
2017-Jun-26 06:00N 62°14' E 005°10'4 8.1
2017-Jun-26 05:30N 62°10' E 005°04'5 9.1
2017-Jun-26 05:00N 62°06' E 005°06'5 9.8
2017-Jun-26 04:30N 62°01' E 005°09'510.4
2017-Jun-26 04:00N 61°56' E 005°08'5 9.1
2017-Jun-26 03:30N 61°52' E 005°13'3 6.4
2017-Jun-26 03:00N 61°49' E 005°12'510.6
2017-Jun-26 02:30N 61°46' E 005°03'5 9.8
2017-Jun-26 01:59N 61°42' E 004°58'510.2
2017-Jun-26 01:30N 61°37' E 004°59'4 8.9
2017-Jun-26 01:00N 61°33' E 005°00'510.4
2017-Jun-26 00:30N 61°28' E 004°59'510.0
2017-Jun-26 00:00N 61°23' E 005°01'4 8.8
2017-Jun-25 23:30N 61°18' E 005°02'5 9.2
2017-Jun-25 23:00N 61°15' E 004°55'510.2
2017-Jun-25 22:30N 61°10' E 005°01'510.4
2017-Jun-25 22:00N 61°05' E 005°01'510.6
2017-Jun-25 21:30N 61°02' E 004°54'510.4
2017-Jun-25 20:59N 60°58' E 004°46'5 9.9
2017-Jun-25 20:30N 60°53' E 004°46'4 9.0
2017-Jun-25 20:00N 60°49' E 004°44'4 8.7
2017-Jun-25 19:30N 60°45' E 004°48'5 9.0
2017-Jun-25 19:00N 60°40' E 004°51'5 9.8
2017-Jun-25 18:30N 60°36' E 004°54'3 5.0
2017-Jun-25 17:58N 60°33' E 004°53'0 0.0
2017-Jun-25 17:25N 60°33' E 004°53'0 0.0
2017-Jun-25 17:00N 60°33' E 004°53'0 0.0
2017-Jun-25 16:30N 60°33' E 004°53'0 0.0
2017-Jun-25 16:00N 60°33' E 004°53'0 0.0
2017-Jun-25 15:30N 60°33' E 004°53'0 0.0
2017-Jun-25 15:00N 60°33' E 004°53'0 0.0
2017-Jun-25 14:29N 60°33' E 004°53'0 0.0
2017-Jun-25 13:29N 60°33' E 004°53'2 5.0
2017-Jun-25 13:00N 60°35' E 004°53'611.8
2017-Jun-25 12:30N 60°41' E 004°50'510.8
2017-Jun-25 12:00N 60°46' E 004°46'510.3
2017-Jun-25 11:30N 60°51' E 004°45'510.7
2017-Jun-25 11:00N 60°56' E 004°46'5 9.4
2017-Jun-25 10:30N 61°01' E 004°50'611.5
2017-Jun-25 10:00N 61°04' E 004°59'511.0
2017-Jun-25 09:30N 61°10' E 005°01'5 9.9
2017-Jun-25 09:00N 61°14' E 004°56'5 9.3
2017-Jun-25 08:30N 61°18' E 004°60'4 8.9
2017-Jun-25 08:00N 61°22' E 005°01'510.1
2017-Jun-25 07:30N 61°27' E 004°58'611.0
2017-Jun-25 07:00N 61°33' E 004°60'5 9.2
2017-Jun-25 06:30N 61°37' E 004°59'510.6
2017-Jun-25 06:00N 61°43' E 004°57'611.4
2017-Jun-25 05:30N 61°47' E 005°04'611.9
2017-Jun-25 05:00N 61°50' E 005°15'5 8.8
2017-Jun-25 04:30N 61°54' E 005°09'5 9.3
2017-Jun-25 04:00N 61°58' E 005°09'611.0
2017-Jun-25 03:30N 62°04' E 005°07'510.4
2017-Jun-25 03:00N 62°08' E 005°03'4 8.1
2017-Jun-25 02:30N 62°12' E 005°05'510.4
2017-Jun-25 02:00N 62°13' E 005°16'510.0
2017-Jun-25 01:30N 62°12' E 005°27'611.3
2017-Jun-25 01:00N 62°11' E 005°38'611.7
2017-Jun-25 00:29N 62°13' E 005°51'511.0
2017-Jun-25 00:00N 62°17' E 005°59'611.4
2017-Jun-24 23:30N 62°21' E 006°07'611.6
2017-Jun-24 23:00N 62°26' E 006°03'611.4
2017-Jun-24 22:30N 62°31' E 006°09'611.4
2017-Jun-24 22:00N 62°36' E 006°16'611.6
2017-Jun-24 21:30N 62°40' E 006°25'612.1
2017-Jun-24 21:00N 62°45' E 006°32'612.3
2017-Jun-24 20:30N 62°50' E 006°39'612.2
2017-Jun-24 20:00N 62°55' E 006°47'611.4
2017-Jun-24 19:30N 62°59' E 006°55'510.7
2017-Jun-24 19:00N 63°01' E 007°06'510.8
2017-Jun-24 18:30N 63°03' E 007°17'510.7
2017-Jun-24 18:00N 63°05' E 007°28'510.6
2017-Jun-24 17:30N 63°08' E 007°39'4 8.8
2017-Jun-24 17:00N 63°06' E 007°48'0 0.1
2017-Jun-24 16:30N 63°06' E 007°48'0 0.0
2017-Jun-24 15:59N 63°06' E 007°48'0 0.0
2017-Jun-24 15:30N 63°06' E 007°48'0 0.0
2017-Jun-24 15:01N 63°06' E 007°48'3 2.8
2017-Jun-24 14:01N 63°06' E 007°42'5 9.5
2017-Jun-24 13:30N 63°06' E 007°31'612.1
2017-Jun-24 13:01N 63°03' E 007°20'612.2
2017-Jun-24 12:30N 63°01' E 007°07'612.2
2017-Jun-24 12:00N 62°59' E 006°54'611.4
2017-Jun-24 11:30N 62°54' E 006°46'612.1
2017-Jun-24 11:01N 62°49' E 006°39'612.1
2017-Jun-24 10:30N 62°44' E 006°32'612.1
2017-Jun-24 10:00N 62°39' E 006°24'612.5
2017-Jun-24 09:30N 62°35' E 006°14'611.9
2017-Jun-24 09:00N 62°30' E 006°09'510.8
2017-Jun-24 08:30N 62°25' E 006°04'510.3
2017-Jun-24 08:00N 62°20' E 006°05'612.8
2017-Jun-24 07:30N 62°15' E 005°56'611.7
2017-Jun-24 07:00N 62°12' E 005°46'611.8
2017-Jun-24 06:30N 62°11' E 005°33'611.2
2017-Jun-24 06:00N 62°10' E 005°21'611.4
2017-Jun-24 05:30N 62°13' E 005°11'510.9
2017-Jun-24 05:00N 62°09' E 005°04'611.8
2017-Jun-24 04:30N 62°03' E 005°08'611.8
2017-Jun-24 04:00N 61°57' E 005°09'5 9.7
2017-Jun-24 03:30N 61°53' E 005°11'3 6.9
2017-Jun-24 03:00N 61°49' E 005°12'612.5
2017-Jun-24 02:30N 61°46' E 005°02'611.6
2017-Jun-24 02:00N 61°40' E 004°58'4 8.8
2017-Jun-24 01:30N 61°37' E 005°05'0 0.2
2017-Jun-24 00:55N 61°37' E 005°05'0 0.0
2017-Jun-24 00:25N 61°37' E 005°05'0 0.0
2017-Jun-24 00:00N 61°37' E 005°05'0 0.0
2017-Jun-23 23:24N 61°37' E 005°05'0 0.0
2017-Jun-23 22:54N 61°37' E 005°05'0 0.0
2017-Jun-23 22:18N 61°37' E 005°05'0 0.0
2017-Jun-23 22:00N 61°37' E 005°05'0 0.0
2017-Jun-23 21:29N 61°37' E 005°05'3 5.2
2017-Jun-23 21:00N 61°37' E 004°60'5 9.7
2017-Jun-23 20:30N 61°32' E 005°00'611.7
2017-Jun-23 20:00N 61°27' E 004°59'611.4
2017-Jun-23 19:30N 61°21' E 005°02'5 9.1
2017-Jun-23 19:00N 61°17' E 004°57'5 9.7
2017-Jun-23 18:30N 61°13' E 004°59'612.3
2017-Jun-23 18:00N 61°06' E 005°02'611.8
2017-Jun-23 17:30N 61°02' E 004°54'611.8
2017-Jun-23 17:00N 60°58' E 004°46'612.4
2017-Jun-23 16:30N 60°52' E 004°47'612.0
2017-Jun-23 16:00N 60°45' E 004°48'713.2
2017-Jun-23 15:30N 60°39' E 004°52'612.4
2017-Jun-23 15:00N 60°33' E 004°54'1 0.5
2017-Jun-23 14:00N 60°33' E 004°53'0 0.0
2017-Jun-23 13:30N 60°33' E 004°53'0 0.0
2017-Jun-23 13:00N 60°33' E 004°53'0 0.0
2017-Jun-23 12:29N 60°33' E 004°53'0 0.0
2017-Jun-23 12:00N 60°33' E 004°53'0 0.0
2017-Jun-23 11:30N 60°33' E 004°53'0 0.0
2017-Jun-23 10:59N 60°33' E 004°53'0 0.0
2017-Jun-23 10:29N 60°33' E 004°53'0 0.0
2017-Jun-23 10:00N 60°33' E 004°53'0 0.0
2017-Jun-23 09:30N 60°33' E 004°53'0 0.0
2017-Jun-23 09:00N 60°33' E 004°53'0 0.0
2017-Jun-23 08:30N 60°33' E 004°53'0 0.2
2017-Jun-23 08:00N 60°33' E 004°53'510.3
2017-Jun-23 07:30N 60°38' E 004°52'611.6
2017-Jun-23 07:00N 60°43' E 004°48'611.6
2017-Jun-23 06:30N 60°49' E 004°44'611.4
2017-Jun-23 05:59N 60°55' E 004°46'611.3
2017-Jun-23 05:30N 61°00' E 004°48'612.2
2017-Jun-23 05:00N 61°04' E 004°58'611.0
2017-Jun-23 04:30N 61°09' E 005°01'511.0
2017-Jun-23 04:00N 61°14' E 004°56'611.8
2017-Jun-23 03:30N 61°19' E 004°51'510.5
2017-Jun-23 03:00N 61°24' E 004°50'611.9
2017-Jun-23 02:30N 61°29' E 004°59'511.0
2017-Jun-23 02:00N 61°34' E 004°58'611.4
2017-Jun-23 01:30N 61°40' E 004°58'511.1
2017-Jun-23 01:00N 61°45' E 005°00'611.5
2017-Jun-23 00:30N 61°49' E 005°10'3 7.1
2017-Jun-23 00:00N 61°52' E 005°13'5 9.1
2017-Jun-22 23:29N 61°57' E 005°08'611.3
2017-Jun-22 23:00N 62°02' E 005°08'611.9
2017-Jun-22 22:30N 62°08' E 005°05'510.7
2017-Jun-22 22:00N 62°13' E 005°07'611.1
2017-Jun-22 21:29N 62°18' E 005°15'611.6
2017-Jun-22 21:00N 62°22' E 005°23'611.8
2017-Jun-22 20:30N 62°26' E 005°32'611.9
2017-Jun-22 20:00N 62°27' E 005°45'612.6
2017-Jun-22 19:30N 62°27' E 005°58'611.0
2017-Jun-22 19:00N 62°30' E 006°09'611.4
2017-Jun-22 18:29N 62°35' E 006°15'611.3
2017-Jun-22 18:00N 62°39' E 006°23'611.8
2017-Jun-22 17:30N 62°44' E 006°30'612.1
2017-Jun-22 17:00N 62°49' E 006°37'612.0
2017-Jun-22 16:30N 62°54' E 006°45'611.6
2017-Jun-22 15:59N 62°59' E 006°52'611.9
2017-Jun-22 15:30N 63°01' E 007°04'611.7
2017-Jun-22 15:00N 63°03' E 007°16'1212.2
2017-Jun-22 14:00N 63°09' E 007°40'612.4
2017-Jun-22 13:30N 63°12' E 007°51'612.5
2017-Jun-22 12:59N 63°16' E 008°04'613.0
2017-Jun-22 12:30N 63°19' E 008°16'612.7
2017-Jun-22 12:00N 63°23' E 008°27'612.6
2017-Jun-22 11:30N 63°26' E 008°39'612.6
2017-Jun-22 11:00N 63°28' E 008°53'612.8
2017-Jun-22 10:30N 63°30' E 009°06'612.1
2017-Jun-22 10:00N 63°33' E 009°17'611.5
2017-Jun-22 09:30N 63°37' E 009°27'611.4
2017-Jun-22 09:01N 63°42' E 009°31'612.0
2017-Jun-22 08:30N 63°48' E 009°35'611.7
2017-Jun-22 08:00N 63°53' E 009°43'611.1
2017-Jun-22 07:30N 63°58' E 009°47'511.1
2017-Jun-22 07:00N 64°03' E 009°50'611.8
2017-Jun-22 06:30N 64°07' E 010°01'611.5
2017-Jun-22 06:00N 64°11' E 010°09'611.5
2017-Jun-22 05:30N 64°15' E 010°19'612.0
2017-Jun-22 05:00N 64°21' E 010°22'611.6
2017-Jun-22 04:30N 64°27' E 010°27'611.3
2017-Jun-22 04:00N 64°31' E 010°34'611.3
2017-Jun-22 03:29N 64°36' E 010°40'611.3
2017-Jun-22 03:00N 64°41' E 010°48'611.7
2017-Jun-22 02:30N 64°45' E 010°58'612.1
2017-Jun-22 02:00N 64°49' E 011°08'612.0
2017-Jun-22 01:30N 64°53' E 011°18'612.3
2017-Jun-22 01:00N 64°57' E 011°29'612.0
2017-Jun-22 00:30N 65°01' E 011°40'612.0
2017-Jun-22 00:00N 65°06' E 011°48'612.1
2017-Jun-21 23:30N 65°12' E 011°52'611.8
2017-Jun-21 23:00N 65°17' E 011°58'510.5
2017-Jun-21 22:30N 65°22' E 012°01'510.7
2017-Jun-21 22:01N 65°27' E 011°57'611.9
2017-Jun-21 21:30N 65°33' E 012°03'612.3
2017-Jun-21 21:00N 65°37' E 012°12'612.8
2017-Jun-21 20:30N 65°43' E 012°17'612.7
2017-Jun-21 20:00N 65°48' E 012°27'612.7
2017-Jun-21 19:30N 65°54' E 012°36'612.8
2017-Jun-21 19:00N 65°58' E 012°47'510.8
2017-Jun-21 18:30N 65°56' E 012°60'611.3
2017-Jun-21 18:00N 65°52' E 013°10'1 2.5
2017-Jun-21 17:28N 65°51' E 013°11'0 0.0
2017-Jun-21 16:58N 65°51' E 013°11'0 0.0
2017-Jun-21 16:28N 65°51' E 013°11'0 0.0
2017-Jun-21 15:58N 65°51' E 013°11'0 0.0
2017-Jun-21 15:30N 65°51' E 013°11'0 0.0
2017-Jun-21 14:57N 65°51' E 013°11'0 0.0
2017-Jun-21 14:27N 65°51' E 013°11'0 0.0
2017-Jun-21 13:26N 65°51' E 013°11'0 0.0
2017-Jun-21 12:59N 65°51' E 013°11'0 0.0
2017-Jun-21 12:26N 65°51' E 013°11'0 0.0
2017-Jun-21 11:59N 65°51' E 013°11'0 0.0
2017-Jun-21 11:29N 65°51' E 013°11'0 0.0
2017-Jun-21 10:58N 65°51' E 013°11'0 0.0
2017-Jun-21 10:28N 65°51' E 013°11'0 0.0
2017-Jun-21 09:58N 65°51' E 013°11'0 0.0
2017-Jun-21 09:29N 65°51' E 013°11'2 3.7
2017-Jun-21 09:00N 65°53' E 013°09'11 9.4
2017-Jun-21 07:47N 65°57' E 012°43'1611.1
2017-Jun-21 06:19N 65°44' E 012°18'2111.8
2017-Jun-21 04:35N 65°25' E 011°57'510.6
2017-Jun-21 04:09N 65°22' E 012°04'211.6
2017-Jun-21 03:59N 65°20' E 012°01'612.2
2017-Jun-21 03:30N 65°15' E 011°55'612.1
2017-Jun-21 03:00N 65°09' E 011°50'612.3
2017-Jun-21 02:30N 65°04' E 011°45'612.3
2017-Jun-21 02:00N 64°59' E 011°35'612.7
2017-Jun-21 01:31N 64°55' E 011°23'611.7
2017-Jun-21 01:00N 64°51' E 011°13'611.5
2017-Jun-21 00:30N 64°47' E 011°04'4010.8
2017-Jun-20 20:46N 64°13' E 010°13'3011.1
2017-Jun-20 18:07N 63°49' E 009°35'112.2
2017-Jun-20 18:00N 63°47' E 009°34'611.5
2017-Jun-20 17:30N 63°42' E 009°30'611.0
2017-Jun-20 17:00N 63°36' E 009°28'713.1
2017-Jun-20 16:29N 63°32' E 009°16'714.1
2017-Jun-20 16:00N 63°29' E 009°02'713.5
2017-Jun-20 15:27N 63°27' E 008°47'713.4
2017-Jun-20 14:58N 63°24' E 008°33'612.7
2017-Jun-20 14:30N 63°21' E 008°22'1312.9
2017-Jun-20 13:30N 63°14' E 007°58'5 9.9
2017-Jun-20 13:00N 63°11' E 007°49'510.2
2017-Jun-20 12:30N 63°07' E 007°41'3 6.5
2017-Jun-20 12:00N 63°06' E 007°48'0 0.4
2017-Jun-20 11:29N 63°06' E 007°48'0 0.0
2017-Jun-20 10:59N 63°06' E 007°48'0 0.0
2017-Jun-20 10:28N 63°06' E 007°48'0 0.2
2017-Jun-20 10:00N 63°06' E 007°48'5 9.6
2017-Jun-20 09:30N 63°07' E 007°37'612.3
2017-Jun-20 09:01N 63°04' E 007°25'612.0
2017-Jun-20 08:30N 63°02' E 007°13'612.0
2017-Jun-20 08:00N 62°60' E 007°01'611.4
2017-Jun-20 07:30N 62°57' E 006°50'611.6
2017-Jun-20 07:00N 62°52' E 006°43'611.9
2017-Jun-20 06:30N 62°47' E 006°36'612.0
2017-Jun-20 06:00N 62°42' E 006°28'612.0
2017-Jun-20 05:30N 62°38' E 006°20'612.5
2017-Jun-20 05:00N 62°33' E 006°11'611.4
2017-Jun-20 04:30N 62°28' E 006°04'510.2
2017-Jun-20 04:00N 62°23' E 006°06'5 9.6
2017-Jun-20 03:30N 62°19' E 006°03'712.5
2017-Jun-20 02:59N 62°13' E 005°54'612.4
2017-Jun-20 02:30N 62°11' E 005°43'811.4
2017-Jun-20 01:50N 62°12' E 005°26'4 9.8
2017-Jun-20 01:28N 62°11' E 005°18'510.9
2017-Jun-20 01:00N 62°13' E 005°08'40 9.3
2017-Jun-19 20:44N 61°34' E 004°60'311.3
2017-Jun-19 20:30N 61°31' E 005°00'611.5
2017-Jun-19 19:59N 61°26' E 004°53'611.6
2017-Jun-19 19:30N 61°21' E 004°49'611.6
2017-Jun-19 19:00N 61°16' E 004°55'611.4
2017-Jun-19 18:30N 61°11' E 005°01'611.5
2017-Jun-19 18:00N 61°05' E 005°01'612.2
2017-Jun-19 17:30N 61°01' E 004°52'611.4
2017-Jun-19 17:00N 60°56' E 004°46'611.6
2017-Jun-19 16:29N 60°50' E 004°45'611.4
2017-Jun-19 16:00N 60°45' E 004°48'612.2
2017-Jun-19 15:30N 60°39' E 004°52'611.7
2017-Jun-19 15:00N 60°33' E 004°54'1 1.1
2017-Jun-19 14:29N 60°33' E 004°53'0 0.0
2017-Jun-19 13:25N 60°33' E 004°53'0 0.0
2017-Jun-19 12:49N 60°33' E 004°53'0 0.0
2017-Jun-19 12:28N 60°33' E 004°53'0 0.0
2017-Jun-19 11:58N 60°33' E 004°53'0 0.0
2017-Jun-19 11:28N 60°33' E 004°53'0 0.0
2017-Jun-19 11:00N 60°33' E 004°53'0 0.0
2017-Jun-19 10:30N 60°33' E 004°53'0 0.0
2017-Jun-19 10:00N 60°33' E 004°53'0 0.0
2017-Jun-19 09:30N 60°33' E 004°53'0 0.0
2017-Jun-19 09:00N 60°33' E 004°53'0 0.0
2017-Jun-19 08:29N 60°33' E 004°53'0 0.0
2017-Jun-19 07:59N 60°33' E 004°53'0 0.0
2017-Jun-19 07:29N 60°33' E 004°53'3 6.9
2017-Jun-19 07:00N 60°36' E 004°53'612.0
2017-Jun-19 06:30N 60°42' E 004°49'611.8
2017-Jun-19 06:00N 60°47' E 004°45'610.9
2017-Jun-19 05:30N 60°53' E 004°46'611.2
2017-Jun-19 05:00N 60°59' E 004°46'510.9
2017-Jun-19 04:30N 61°02' E 004°54'611.3
2017-Jun-19 04:00N 61°07' E 005°02'611.8
2017-Jun-19 03:30N 61°13' E 004°59'510.0
2017-Jun-19 03:00N 61°17' E 004°55'5 9.2
2017-Jun-19 02:30N 61°20' E 005°03'611.3
2017-Jun-19 02:00N 61°25' E 004°58'511.0
2017-Jun-19 01:30N 61°31' E 005°00'510.7
2017-Jun-19 01:00N 61°36' E 004°57'510.5
2017-Jun-19 00:30N 61°41' E 004°57'510.2
2017-Jun-19 00:00N 61°46' E 005°01'510.6
2017-Jun-18 23:30N 61°49' E 005°10'3 7.1
2017-Jun-18 23:00N 61°52' E 005°14'5 9.9
2017-Jun-18 22:30N 61°56' E 005°07'510.6
2017-Jun-18 22:00N 62°01' E 005°09'611.1
2017-Jun-18 21:29N 62°07' E 005°06'5 9.6
2017-Jun-18 21:00N 62°11' E 005°05'4 8.5
2017-Jun-18 20:30N 62°13' E 005°13'510.9
2017-Jun-18 20:00N 62°10' E 005°23'510.0
2017-Jun-18 19:30N 62°12' E 005°33'5 9.8
2017-Jun-18 19:00N 62°12' E 005°43'510.6
2017-Jun-18 18:30N 62°14' E 005°54'611.4
2017-Jun-18 18:00N 62°18' E 006°01'510.1
2017-Jun-18 17:30N 62°23' E 006°06'510.8
2017-Jun-18 17:00N 62°28' E 006°05'510.7
2017-Jun-18 16:30N 62°33' E 006°10'510.4
2017-Jun-18 16:00N 62°37' E 006°18'5 9.9
2017-Jun-18 15:30N 62°40' E 006°25'510.6
2017-Jun-18 15:00N 62°44' E 006°32'1110.6
2017-Jun-18 13:59N 62°54' E 006°44'5 9.8
2017-Jun-18 13:30N 62°58' E 006°50'4 8.0
2017-Jun-18 13:00N 62°60' E 006°57'4 8.1
2017-Jun-18 12:30N 63°01' E 007°06'4 8.2
2017-Jun-18 12:00N 63°03' E 007°14'4 8.3
2017-Jun-18 11:30N 63°04' E 007°22'5 9.4
2017-Jun-18 11:00N 63°06' E 007°31'5 9.5
2017-Jun-18 10:30N 63°09' E 007°40'510.0
2017-Jun-18 10:00N 63°12' E 007°49'5 9.7
2017-Jun-18 09:30N 63°14' E 007°59'510.5
2017-Jun-18 09:00N 63°17' E 008°09'5 9.9
2017-Jun-18 08:30N 63°20' E 008°18'5 9.9
2017-Jun-18 08:00N 63°23' E 008°26'5 9.6
2017-Jun-18 07:30N 63°25' E 008°36'5 9.3
2017-Jun-18 07:00N 63°27' E 008°46'5 9.6
2017-Jun-18 06:30N 63°28' E 008°56'510.4
2017-Jun-18 06:00N 63°30' E 009°06'510.0
2017-Jun-18 05:30N 63°33' E 009°16'510.6
2017-Jun-18 05:00N 63°36' E 009°26'511.1
2017-Jun-18 04:30N 63°41' E 009°30'611.5
2017-Jun-18 04:00N 63°47' E 009°33'511.0
2017-Jun-18 03:30N 63°51' E 009°40'610.9
2017-Jun-18 03:00N 63°56' E 009°47'612.0
2017-Jun-18 02:30N 64°02' E 009°47'511.0
2017-Jun-18 02:00N 64°05' E 009°56'510.8
2017-Jun-18 01:30N 64°09' E 010°06'611.0
2017-Jun-18 01:00N 64°13' E 010°13'5 9.9
2017-Jun-18 00:30N 64°17' E 010°20'5 9.9
2017-Jun-18 00:00N 64°21' E 010°27'510.6
2017-Jun-17 23:30N 64°27' E 010°27'5 9.5
2017-Jun-17 23:00N 64°31' E 010°30'5 9.7
2017-Jun-17 22:30N 64°35' E 010°38'510.0
2017-Jun-17 22:00N 64°39' E 010°45'510.1
2017-Jun-17 21:30N 64°43' E 010°52'510.2
2017-Jun-17 21:00N 64°46' E 011°01'510.4
2017-Jun-17 20:30N 64°50' E 011°10'510.7
2017-Jun-17 20:00N 64°53' E 011°19'611.1
2017-Jun-17 19:30N 64°57' E 011°29'611.4
2017-Jun-17 19:00N 65°01' E 011°39'611.2
2017-Jun-17 18:30N 65°05' E 011°47'611.8
2017-Jun-17 18:00N 65°11' E 011°51'611.6
2017-Jun-17 17:30N 65°16' E 011°57'611.8
2017-Jun-17 17:00N 65°21' E 012°03'510.8
2017-Jun-17 16:30N 65°26' E 011°56'611.4
2017-Jun-17 16:00N 65°31' E 012°02'611.3
2017-Jun-17 15:30N 65°36' E 012°10'611.6
2017-Jun-17 15:00N 65°41' E 012°15'1111.0
2017-Jun-17 14:00N 65°50' E 012°30'510.7
2017-Jun-17 13:30N 65°54' E 012°37'611.2
2017-Jun-17 13:00N 65°58' E 012°47'510.2
2017-Jun-17 12:30N 65°56' E 012°60'611.5
2017-Jun-17 12:00N 65°52' E 013°09'1 3.0
2017-Jun-17 11:30N 65°51' E 013°11'0 0.0
2017-Jun-17 10:59N 65°51' E 013°11'0 0.0
2017-Jun-17 10:25N 65°51' E 013°11'0 0.0
2017-Jun-17 10:00N 65°51' E 013°11'0 0.0
2017-Jun-17 09:29N 65°51' E 013°11'0 0.0
2017-Jun-17 09:00N 65°51' E 013°11'0 0.0
2017-Jun-17 08:30N 65°51' E 013°11'0 0.0
2017-Jun-17 08:00N 65°51' E 013°11'0 0.0
2017-Jun-17 07:30N 65°51' E 013°11'0 0.0
2017-Jun-17 07:00N 65°51' E 013°11'0 0.0
2017-Jun-17 06:30N 65°51' E 013°11'0 0.0
2017-Jun-17 06:00N 65°51' E 013°11'2 4.3
2017-Jun-17 05:30N 65°53' E 013°09'  
Track history (hours):
 
Tides and Currents Weather Stations Pressure Air Temp Water Temp Dewpoint Dewpoint Depression Visibility Wind Speed Wind Dir Waves Ship Positions

Pioneer Knutsen

Last reported at 2017-Jun-27 05:00 UTC. Time now 2017-Jun-27 05:25 UTC.
Position N 60°56' E 004°46'.

Length 70 m; draft 3.6 m.

Type: Ship. MMSI: 259393000.

Date/timePositionNaut miles runAvg speedWind from/ knotsBaromVisibWave heightAir tempDewpointWater temp
2017-Jun-27 05:00N 60°56' E 004°46'611.6
2017-Jun-27 04:31N 61°01' E 004°51'612.5
2017-Jun-27 04:00N 61°05' E 005°00'611.5
2017-Jun-27 03:30N 61°11' E 005°01'611.4
2017-Jun-27 03:01N 61°15' E 004°53'611.2
2017-Jun-27 02:30N 61°20' E 004°48'612.0
2017-Jun-27 02:01N 61°26' E 004°53'612.1
2017-Jun-27 01:30N 61°31' E 005°00'611.2
2017-Jun-27 01:00N 61°36' E 004°58'611.6
2017-Jun-27 00:30N 61°42' E 004°57'611.7
2017-Jun-27 00:00N 61°47' E 005°04'612.1
2017-Jun-26 23:30N 61°50' E 005°15'510.0
2017-Jun-26 23:00N 61°54' E 005°09'510.3
2017-Jun-26 22:31N 61°59' E 005°09'611.6
2017-Jun-26 22:00N 62°05' E 005°07'611.7
2017-Jun-26 21:30N 62°10' E 005°04'510.2
2017-Jun-26 21:00N 62°13' E 005°13'510.5
2017-Jun-26 20:30N 62°10' E 005°22'510.3
2017-Jun-26 20:00N 62°11' E 005°33'611.9
2017-Jun-26 19:30N 62°12' E 005°46'612.1
2017-Jun-26 19:00N 62°15' E 005°57'612.6
2017-Jun-26 18:30N 62°20' E 006°05'510.9
2017-Jun-26 18:00N 62°25' E 006°02'510.4
2017-Jun-26 17:30N 62°29' E 006°10'510.1
2017-Jun-26 16:59N 62°29' E 006°21'1 2.2
2017-Jun-26 16:30N 62°29' E 006°23'0 0.0
2017-Jun-26 16:00N 62°29' E 006°23'0 0.0
2017-Jun-26 15:30N 62°29' E 006°23'0 0.0
2017-Jun-26 14:59N 62°29' E 006°23'0 0.0
2017-Jun-26 14:30N 62°29' E 006°23'0 0.0
2017-Jun-26 13:30N 62°29' E 006°23'0 0.0
2017-Jun-26 13:00N 62°29' E 006°23'0 0.0
2017-Jun-26 12:30N 62°29' E 006°23'17 4.0
2017-Jun-26 08:23N 62°17' E 005°60'410.9
2017-Jun-26 08:00N 62°13' E 005°54'611.3
2017-Jun-26 07:30N 62°11' E 005°43'611.5
2017-Jun-26 07:00N 62°12' E 005°31'510.3
2017-Jun-26 06:30N 62°11' E 005°20'510.6
2017-Jun-26 06:00N 62°14' E 005°10'4 8.1
2017-Jun-26 05:30N 62°10' E 005°04'5 9.1
2017-Jun-26 05:00N 62°06' E 005°06'5 9.8
2017-Jun-26 04:30N 62°01' E 005°09'510.4
2017-Jun-26 04:00N 61°56' E 005°08'5 9.1
2017-Jun-26 03:30N 61°52' E 005°13'3 6.4
2017-Jun-26 03:00N 61°49' E 005°12'510.6
2017-Jun-26 02:30N 61°46' E 005°03'5 9.8
2017-Jun-26 01:59N 61°42' E 004°58'510.2
2017-Jun-26 01:30N 61°37' E 004°59'4 8.9
2017-Jun-26 01:00N 61°33' E 005°00'510.4
2017-Jun-26 00:30N 61°28' E 004°59'510.0
2017-Jun-26 00:00N 61°23' E 005°01'4 8.8
2017-Jun-25 23:30N 61°18' E 005°02'5 9.2
2017-Jun-25 23:00N 61°15' E 004°55'510.2
2017-Jun-25 22:30N 61°10' E 005°01'510.4
2017-Jun-25 22:00N 61°05' E 005°01'510.6
2017-Jun-25 21:30N 61°02' E 004°54'510.4
2017-Jun-25 20:59N 60°58' E 004°46'5 9.9
2017-Jun-25 20:30N 60°53' E 004°46'4 9.0
2017-Jun-25 20:00N 60°49' E 004°44'4 8.7
2017-Jun-25 19:30N 60°45' E 004°48'5 9.0
2017-Jun-25 19:00N 60°40' E 004°51'5 9.8
2017-Jun-25 18:30N 60°36' E 004°54'3 5.0
2017-Jun-25 17:58N 60°33' E 004°53'0 0.0
2017-Jun-25 17:25N 60°33' E 004°53'0 0.0
2017-Jun-25 17:00N 60°33' E 004°53'0 0.0
2017-Jun-25 16:30N 60°33' E 004°53'0 0.0
2017-Jun-25 16:00N 60°33' E 004°53'0 0.0
2017-Jun-25 15:30N 60°33' E 004°53'0 0.0
2017-Jun-25 15:00N 60°33' E 004°53'0 0.0
2017-Jun-25 14:29N 60°33' E 004°53'0 0.0
2017-Jun-25 13:29N 60°33' E 004°53'2 5.0
2017-Jun-25 13:00N 60°35' E 004°53'611.8
2017-Jun-25 12:30N 60°41' E 004°50'510.8
2017-Jun-25 12:00N 60°46' E 004°46'510.3
2017-Jun-25 11:30N 60°51' E 004°45'510.7
2017-Jun-25 11:00N 60°56' E 004°46'5 9.4
2017-Jun-25 10:30N 61°01' E 004°50'611.5
2017-Jun-25 10:00N 61°04' E 004°59'511.0
2017-Jun-25 09:30N 61°10' E 005°01'5 9.9
2017-Jun-25 09:00N 61°14' E 004°56'5 9.3
2017-Jun-25 08:30N 61°18' E 004°60'4 8.9
2017-Jun-25 08:00N 61°22' E 005°01'510.1
2017-Jun-25 07:30N 61°27' E 004°58'611.0
2017-Jun-25 07:00N 61°33' E 004°60'5 9.2
2017-Jun-25 06:30N 61°37' E 004°59'510.6
2017-Jun-25 06:00N 61°43' E 004°57'611.4
2017-Jun-25 05:30N 61°47' E 005°04'611.9
2017-Jun-25 05:00N 61°50' E 005°15'5 8.8
2017-Jun-25 04:30N 61°54' E 005°09'5 9.3
2017-Jun-25 04:00N 61°58' E 005°09'611.0
2017-Jun-25 03:30N 62°04' E 005°07'510.4
2017-Jun-25 03:00N 62°08' E 005°03'4 8.1
2017-Jun-25 02:30N 62°12' E 005°05'510.4
2017-Jun-25 02:00N 62°13' E 005°16'510.0
2017-Jun-25 01:30N 62°12' E 005°27'611.3
2017-Jun-25 01:00N 62°11' E 005°38'611.7
2017-Jun-25 00:29N 62°13' E 005°51'511.0
2017-Jun-25 00:00N 62°17' E 005°59'611.4
2017-Jun-24 23:30N 62°21' E 006°07'611.6
2017-Jun-24 23:00N 62°26' E 006°03'611.4
2017-Jun-24 22:30N 62°31' E 006°09'611.4
2017-Jun-24 22:00N 62°36' E 006°16'611.6
2017-Jun-24 21:30N 62°40' E 006°25'612.1
2017-Jun-24 21:00N 62°45' E 006°32'612.3
2017-Jun-24 20:30N 62°50' E 006°39'612.2
2017-Jun-24 20:00N 62°55' E 006°47'611.4
2017-Jun-24 19:30N 62°59' E 006°55'510.7
2017-Jun-24 19:00N 63°01' E 007°06'510.8
2017-Jun-24 18:30N 63°03' E 007°17'510.7
2017-Jun-24 18:00N 63°05' E 007°28'510.6
2017-Jun-24 17:30N 63°08' E 007°39'4 8.8
2017-Jun-24 17:00N 63°06' E 007°48'0 0.1
2017-Jun-24 16:30N 63°06' E 007°48'0 0.0
2017-Jun-24 15:59N 63°06' E 007°48'0 0.0
2017-Jun-24 15:30N 63°06' E 007°48'0 0.0
2017-Jun-24 15:01N 63°06' E 007°48'3 2.8
2017-Jun-24 14:01N 63°06' E 007°42'5 9.5
2017-Jun-24 13:30N 63°06' E 007°31'612.1
2017-Jun-24 13:01N 63°03' E 007°20'612.2
2017-Jun-24 12:30N 63°01' E 007°07'612.2
2017-Jun-24 12:00N 62°59' E 006°54'611.4
2017-Jun-24 11:30N 62°54' E 006°46'612.1
2017-Jun-24 11:01N 62°49' E 006°39'612.1
2017-Jun-24 10:30N 62°44' E 006°32'612.1
2017-Jun-24 10:00N 62°39' E 006°24'612.5
2017-Jun-24 09:30N 62°35' E 006°14'611.9
2017-Jun-24 09:00N 62°30' E 006°09'510.8
2017-Jun-24 08:30N 62°25' E 006°04'510.3
2017-Jun-24 08:00N 62°20' E 006°05'612.8
2017-Jun-24 07:30N 62°15' E 005°56'611.7
2017-Jun-24 07:00N 62°12' E 005°46'611.8
2017-Jun-24 06:30N 62°11' E 005°33'611.2
2017-Jun-24 06:00N 62°10' E 005°21'611.4
2017-Jun-24 05:30N 62°13' E 005°11'510.9
2017-Jun-24 05:00N 62°09' E 005°04'611.8
2017-Jun-24 04:30N 62°03' E 005°08'611.8
2017-Jun-24 04:00N 61°57' E 005°09'5 9.7
2017-Jun-24 03:30N 61°53' E 005°11'3 6.9
2017-Jun-24 03:00N 61°49' E 005°12'612.5
2017-Jun-24 02:30N 61°46' E 005°02'611.6
2017-Jun-24 02:00N 61°40' E 004°58'4 8.8
2017-Jun-24 01:30N 61°37' E 005°05'0 0.2
2017-Jun-24 00:55N 61°37' E 005°05'0 0.0
2017-Jun-24 00:25N 61°37' E 005°05'0 0.0
2017-Jun-24 00:00N 61°37' E 005°05'0 0.0
2017-Jun-23 23:24N 61°37' E 005°05'0 0.0
2017-Jun-23 22:54N 61°37' E 005°05'0 0.0
2017-Jun-23 22:18N 61°37' E 005°05'0 0.0
2017-Jun-23 22:00N 61°37' E 005°05'0 0.0
2017-Jun-23 21:29N 61°37' E 005°05'3 5.2
2017-Jun-23 21:00N 61°37' E 004°60'5 9.7
2017-Jun-23 20:30N 61°32' E 005°00'611.7
2017-Jun-23 20:00N 61°27' E 004°59'611.4
2017-Jun-23 19:30N 61°21' E 005°02'5 9.1
2017-Jun-23 19:00N 61°17' E 004°57'5 9.7
2017-Jun-23 18:30N 61°13' E 004°59'612.3
2017-Jun-23 18:00N 61°06' E 005°02'611.8
2017-Jun-23 17:30N 61°02' E 004°54'611.8
2017-Jun-23 17:00N 60°58' E 004°46'612.4
2017-Jun-23 16:30N 60°52' E 004°47'612.0
2017-Jun-23 16:00N 60°45' E 004°48'713.2
2017-Jun-23 15:30N 60°39' E 004°52'612.4
2017-Jun-23 15:00N 60°33' E 004°54'1 0.5
2017-Jun-23 14:00N 60°33' E 004°53'0 0.0
2017-Jun-23 13:30N 60°33' E 004°53'0 0.0
2017-Jun-23 13:00N 60°33' E 004°53'0 0.0
2017-Jun-23 12:29N 60°33' E 004°53'0 0.0
2017-Jun-23 12:00N 60°33' E 004°53'0 0.0
2017-Jun-23 11:30N 60°33' E 004°53'0 0.0
2017-Jun-23 10:59N 60°33' E 004°53'0 0.0
2017-Jun-23 10:29N 60°33' E 004°53'0 0.0
2017-Jun-23 10:00N 60°33' E 004°53'0 0.0
2017-Jun-23 09:30N 60°33' E 004°53'0 0.0
2017-Jun-23 09:00N 60°33' E 004°53'0 0.0
2017-Jun-23 08:30N 60°33' E 004°53'0 0.2
2017-Jun-23 08:00N 60°33' E 004°53'510.3
2017-Jun-23 07:30N 60°38' E 004°52'611.6
2017-Jun-23 07:00N 60°43' E 004°48'611.6
2017-Jun-23 06:30N 60°49' E 004°44'611.4
2017-Jun-23 05:59N 60°55' E 004°46'611.3
2017-Jun-23 05:30N 61°00' E 004°48'612.2
2017-Jun-23 05:00N 61°04' E 004°58'611.0
2017-Jun-23 04:30N 61°09' E 005°01'511.0
2017-Jun-23 04:00N 61°14' E 004°56'611.8
2017-Jun-23 03:30N 61°19' E 004°51'510.5
2017-Jun-23 03:00N 61°24' E 004°50'611.9
2017-Jun-23 02:30N 61°29' E 004°59'511.0
2017-Jun-23 02:00N 61°34' E 004°58'611.4
2017-Jun-23 01:30N 61°40' E 004°58'511.1
2017-Jun-23 01:00N 61°45' E 005°00'611.5
2017-Jun-23 00:30N 61°49' E 005°10'3 7.1
2017-Jun-23 00:00N 61°52' E 005°13'5 9.1
2017-Jun-22 23:29N 61°57' E 005°08'611.3
2017-Jun-22 23:00N 62°02' E 005°08'611.9
2017-Jun-22 22:30N 62°08' E 005°05'510.7
2017-Jun-22 22:00N 62°13' E 005°07'611.1
2017-Jun-22 21:29N 62°18' E 005°15'611.6
2017-Jun-22 21:00N 62°22' E 005°23'611.8
2017-Jun-22 20:30N 62°26' E 005°32'611.9
2017-Jun-22 20:00N 62°27' E 005°45'612.6
2017-Jun-22 19:30N 62°27' E 005°58'611.0
2017-Jun-22 19:00N 62°30' E 006°09'611.4
2017-Jun-22 18:29N 62°35' E 006°15'611.3
2017-Jun-22 18:00N 62°39' E 006°23'611.8
2017-Jun-22 17:30N 62°44' E 006°30'612.1
2017-Jun-22 17:00N 62°49' E 006°37'612.0
2017-Jun-22 16:30N 62°54' E 006°45'611.6
2017-Jun-22 15:59N 62°59' E 006°52'611.9
2017-Jun-22 15:30N 63°01' E 007°04'611.7
2017-Jun-22 15:00N 63°03' E 007°16'1212.2
2017-Jun-22 14:00N 63°09' E 007°40'612.4
2017-Jun-22 13:30N 63°12' E 007°51'612.5
2017-Jun-22 12:59N 63°16' E 008°04'613.0
2017-Jun-22 12:30N 63°19' E 008°16'612.7
2017-Jun-22 12:00N 63°23' E 008°27'612.6
2017-Jun-22 11:30N 63°26' E 008°39'612.6
2017-Jun-22 11:00N 63°28' E 008°53'612.8
2017-Jun-22 10:30N 63°30' E 009°06'612.1
2017-Jun-22 10:00N 63°33' E 009°17'611.5
2017-Jun-22 09:30N 63°37' E 009°27'611.4
2017-Jun-22 09:01N 63°42' E 009°31'612.0
2017-Jun-22 08:30N 63°48' E 009°35'611.7
2017-Jun-22 08:00N 63°53' E 009°43'611.1
2017-Jun-22 07:30N 63°58' E 009°47'511.1
2017-Jun-22 07:00N 64°03' E 009°50'611.8
2017-Jun-22 06:30N 64°07' E 010°01'611.5
2017-Jun-22 06:00N 64°11' E 010°09'611.5
2017-Jun-22 05:30N 64°15' E 010°19'612.0
2017-Jun-22 05:00N 64°21' E 010°22'611.6
2017-Jun-22 04:30N 64°27' E 010°27'611.3
2017-Jun-22 04:00N 64°31' E 010°34'611.3
2017-Jun-22 03:29N 64°36' E 010°40'611.3
2017-Jun-22 03:00N 64°41' E 010°48'611.7
2017-Jun-22 02:30N 64°45' E 010°58'612.1
2017-Jun-22 02:00N 64°49' E 011°08'612.0
2017-Jun-22 01:30N 64°53' E 011°18'612.3
2017-Jun-22 01:00N 64°57' E 011°29'612.0
2017-Jun-22 00:30N 65°01' E 011°40'612.0
2017-Jun-22 00:00N 65°06' E 011°48'612.1
2017-Jun-21 23:30N 65°12' E 011°52'611.8
2017-Jun-21 23:00N 65°17' E 011°58'510.5
2017-Jun-21 22:30N 65°22' E 012°01'510.7
2017-Jun-21 22:01N 65°27' E 011°57'611.9
2017-Jun-21 21:30N 65°33' E 012°03'612.3
2017-Jun-21 21:00N 65°37' E 012°12'612.8
2017-Jun-21 20:30N 65°43' E 012°17'612.7
2017-Jun-21 20:00N 65°48' E 012°27'612.7
2017-Jun-21 19:30N 65°54' E 012°36'612.8
2017-Jun-21 19:00N 65°58' E 012°47'510.8
2017-Jun-21 18:30N 65°56' E 012°60'611.3
2017-Jun-21 18:00N 65°52' E 013°10'1 2.5
2017-Jun-21 17:28N 65°51' E 013°11'0 0.0
2017-Jun-21 16:58N 65°51' E 013°11'0 0.0
2017-Jun-21 16:28N 65°51' E 013°11'0 0.0
2017-Jun-21 15:58N 65°51' E 013°11'0 0.0
2017-Jun-21 15:30N 65°51' E 013°11'0 0.0
2017-Jun-21 14:57N 65°51' E 013°11'0 0.0
2017-Jun-21 14:27N 65°51' E 013°11'0 0.0
2017-Jun-21 13:26N 65°51' E 013°11'0 0.0
2017-Jun-21 12:59N 65°51' E 013°11'0 0.0
2017-Jun-21 12:26N 65°51' E 013°11'0 0.0
2017-Jun-21 11:59N 65°51' E 013°11'0 0.0
2017-Jun-21 11:29N 65°51' E 013°11'0 0.0
2017-Jun-21 10:58N 65°51' E 013°11'0 0.0
2017-Jun-21 10:28N 65°51' E 013°11'0 0.0
2017-Jun-21 09:58N 65°51' E 013°11'0 0.0
2017-Jun-21 09:29N 65°51' E 013°11'2 3.7
2017-Jun-21 09:00N 65°53' E 013°09'11 9.4
2017-Jun-21 07:47N 65°57' E 012°43'1611.1
2017-Jun-21 06:19N 65°44' E 012°18'2111.8
2017-Jun-21 04:35N 65°25' E 011°57'510.6
2017-Jun-21 04:09N 65°22' E 012°04'211.6
2017-Jun-21 03:59N 65°20' E 012°01'612.2
2017-Jun-21 03:30N 65°15' E 011°55'612.1
2017-Jun-21 03:00N 65°09' E 011°50'612.3
2017-Jun-21 02:30N 65°04' E 011°45'612.3
2017-Jun-21 02:00N 64°59' E 011°35'612.7
2017-Jun-21 01:31N 64°55' E 011°23'611.7
2017-Jun-21 01:00N 64°51' E 011°13'611.5
2017-Jun-21 00:30N 64°47' E 011°04'4010.8
2017-Jun-20 20:46N 64°13' E 010°13'3011.1
2017-Jun-20 18:07N 63°49' E 009°35'112.2
2017-Jun-20 18:00N 63°47' E 009°34'611.5
2017-Jun-20 17:30N 63°42' E 009°30'611.0
2017-Jun-20 17:00N 63°36' E 009°28'713.1
2017-Jun-20 16:29N 63°32' E 009°16'714.1
2017-Jun-20 16:00N 63°29' E 009°02'713.5
2017-Jun-20 15:27N 63°27' E 008°47'713.4
2017-Jun-20 14:58N 63°24' E 008°33'612.7
2017-Jun-20 14:30N 63°21' E 008°22'1312.9
2017-Jun-20 13:30N 63°14' E 007°58'5 9.9
2017-Jun-20 13:00N 63°11' E 007°49'510.2
2017-Jun-20 12:30N 63°07' E 007°41'3 6.5
2017-Jun-20 12:00N 63°06' E 007°48'0 0.4
2017-Jun-20 11:29N 63°06' E 007°48'0 0.0
2017-Jun-20 10:59N 63°06' E 007°48'0 0.0
2017-Jun-20 10:28N 63°06' E 007°48'0 0.2
2017-Jun-20 10:00N 63°06' E 007°48'5 9.6
2017-Jun-20 09:30N 63°07' E 007°37'612.3
2017-Jun-20 09:01N 63°04' E 007°25'612.0
2017-Jun-20 08:30N 63°02' E 007°13'612.0
2017-Jun-20 08:00N 62°60' E 007°01'611.4
2017-Jun-20 07:30N 62°57' E 006°50'611.6
2017-Jun-20 07:00N 62°52' E 006°43'611.9
2017-Jun-20 06:30N 62°47' E 006°36'612.0
2017-Jun-20 06:00N 62°42' E 006°28'612.0
2017-Jun-20 05:30N 62°38' E 006°20'612.5
2017-Jun-20 05:00N 62°33' E 006°11'611.4
2017-Jun-20 04:30N 62°28' E 006°04'510.2
2017-Jun-20 04:00N 62°23' E 006°06'5 9.6
2017-Jun-20 03:30N 62°19' E 006°03'712.5
2017-Jun-20 02:59N 62°13' E 005°54'612.4
2017-Jun-20 02:30N 62°11' E 005°43'811.4
2017-Jun-20 01:50N 62°12' E 005°26'4 9.8
2017-Jun-20 01:28N 62°11' E 005°18'510.9
2017-Jun-20 01:00N 62°13' E 005°08'40 9.3
2017-Jun-19 20:44N 61°34' E 004°60'311.3
2017-Jun-19 20:30N 61°31' E 005°00'611.5
2017-Jun-19 19:59N 61°26' E 004°53'611.6
2017-Jun-19 19:30N 61°21' E 004°49'611.6
2017-Jun-19 19:00N 61°16' E 004°55'611.4
2017-Jun-19 18:30N 61°11' E 005°01'611.5
2017-Jun-19 18:00N 61°05' E 005°01'612.2
2017-Jun-19 17:30N 61°01' E 004°52'611.4
2017-Jun-19 17:00N 60°56' E 004°46'611.6
2017-Jun-19 16:29N 60°50' E 004°45'611.4
2017-Jun-19 16:00N 60°45' E 004°48'612.2
2017-Jun-19 15:30N 60°39' E 004°52'611.7
2017-Jun-19 15:00N 60°33' E 004°54'1 1.1
2017-Jun-19 14:29N 60°33' E 004°53'0 0.0
2017-Jun-19 13:25N 60°33' E 004°53'0 0.0
2017-Jun-19 12:49N 60°33' E 004°53'0 0.0
2017-Jun-19 12:28N 60°33' E 004°53'0 0.0
2017-Jun-19 11:58N 60°33' E 004°53'0 0.0
2017-Jun-19 11:28N 60°33' E 004°53'0 0.0
2017-Jun-19 11:00N 60°33' E 004°53'0 0.0
2017-Jun-19 10:30N 60°33' E 004°53'0 0.0
2017-Jun-19 10:00N 60°33' E 004°53'0 0.0
2017-Jun-19 09:30N 60°33' E 004°53'0 0.0
2017-Jun-19 09:00N 60°33' E 004°53'0 0.0
2017-Jun-19 08:29N 60°33' E 004°53'0 0.0
2017-Jun-19 07:59N 60°33' E 004°53'0 0.0
2017-Jun-19 07:29N 60°33' E 004°53'3 6.9
2017-Jun-19 07:00N 60°36' E 004°53'612.0
2017-Jun-19 06:30N 60°42' E 004°49'611.8
2017-Jun-19 06:00N 60°47' E 004°45'610.9
2017-Jun-19 05:30N 60°53' E 004°46'611.2
2017-Jun-19 05:00N 60°59' E 004°46'510.9
2017-Jun-19 04:30N 61°02' E 004°54'611.3
2017-Jun-19 04:00N 61°07' E 005°02'611.8
2017-Jun-19 03:30N 61°13' E 004°59'510.0
2017-Jun-19 03:00N 61°17' E 004°55'5 9.2
2017-Jun-19 02:30N 61°20' E 005°03'611.3
2017-Jun-19 02:00N 61°25' E 004°58'511.0
2017-Jun-19 01:30N 61°31' E 005°00'510.7
2017-Jun-19 01:00N 61°36' E 004°57'510.5
2017-Jun-19 00:30N 61°41' E 004°57'510.2
2017-Jun-19 00:00N 61°46' E 005°01'510.6
2017-Jun-18 23:30N 61°49' E 005°10'3 7.1
2017-Jun-18 23:00N 61°52' E 005°14'5 9.9
2017-Jun-18 22:30N 61°56' E 005°07'510.6
2017-Jun-18 22:00N 62°01' E 005°09'611.1
2017-Jun-18 21:29N 62°07' E 005°06'5 9.6
2017-Jun-18 21:00N 62°11' E 005°05'4 8.5
2017-Jun-18 20:30N 62°13' E 005°13'510.9
2017-Jun-18 20:00N 62°10' E 005°23'510.0
2017-Jun-18 19:30N 62°12' E 005°33'5 9.8
2017-Jun-18 19:00N 62°12' E 005°43'510.6
2017-Jun-18 18:30N 62°14' E 005°54'611.4
2017-Jun-18 18:00N 62°18' E 006°01'510.1
2017-Jun-18 17:30N 62°23' E 006°06'510.8
2017-Jun-18 17:00N 62°28' E 006°05'510.7
2017-Jun-18 16:30N 62°33' E 006°10'510.4
2017-Jun-18 16:00N 62°37' E 006°18'5 9.9
2017-Jun-18 15:30N 62°40' E 006°25'510.6
2017-Jun-18 15:00N 62°44' E 006°32'1110.6
2017-Jun-18 13:59N 62°54' E 006°44'5 9.8
2017-Jun-18 13:30N 62°58' E 006°50'4 8.0
2017-Jun-18 13:00N 62°60' E 006°57'4 8.1
2017-Jun-18 12:30N 63°01' E 007°06'4 8.2
2017-Jun-18 12:00N 63°03' E 007°14'4 8.3
2017-Jun-18 11:30N 63°04' E 007°22'5 9.4
2017-Jun-18 11:00N 63°06' E 007°31'5 9.5
2017-Jun-18 10:30N 63°09' E 007°40'510.0
2017-Jun-18 10:00N 63°12' E 007°49'5 9.7
2017-Jun-18 09:30N 63°14' E 007°59'510.5
2017-Jun-18 09:00N 63°17' E 008°09'5 9.9
2017-Jun-18 08:30N 63°20' E 008°18'5 9.9
2017-Jun-18 08:00N 63°23' E 008°26'5 9.6
2017-Jun-18 07:30N 63°25' E 008°36'5 9.3
2017-Jun-18 07:00N 63°27' E 008°46'5 9.6
2017-Jun-18 06:30N 63°28' E 008°56'510.4
2017-Jun-18 06:00N 63°30' E 009°06'510.0
2017-Jun-18 05:30N 63°33' E 009°16'510.6
2017-Jun-18 05:00N 63°36' E 009°26'511.1
2017-Jun-18 04:30N 63°41' E 009°30'611.5
2017-Jun-18 04:00N 63°47' E 009°33'511.0
2017-Jun-18 03:30N 63°51' E 009°40'610.9
2017-Jun-18 03:00N 63°56' E 009°47'612.0
2017-Jun-18 02:30N 64°02' E 009°47'511.0
2017-Jun-18 02:00N 64°05' E 009°56'510.8
2017-Jun-18 01:30N 64°09' E 010°06'611.0
2017-Jun-18 01:00N 64°13' E 010°13'5 9.9
2017-Jun-18 00:30N 64°17' E 010°20'5 9.9
2017-Jun-18 00:00N 64°21' E 010°27'510.6
2017-Jun-17 23:30N 64°27' E 010°27'5 9.5
2017-Jun-17 23:00N 64°31' E 010°30'5 9.7
2017-Jun-17 22:30N 64°35' E 010°38'510.0
2017-Jun-17 22:00N 64°39' E 010°45'510.1
2017-Jun-17 21:30N 64°43' E 010°52'510.2
2017-Jun-17 21:00N 64°46' E 011°01'510.4
2017-Jun-17 20:30N 64°50' E 011°10'510.7
2017-Jun-17 20:00N 64°53' E 011°19'611.1
2017-Jun-17 19:30N 64°57' E 011°29'611.4
2017-Jun-17 19:00N 65°01' E 011°39'611.2
2017-Jun-17 18:30N 65°05' E 011°47'611.8
2017-Jun-17 18:00N 65°11' E 011°51'611.6
2017-Jun-17 17:30N 65°16' E 011°57'611.8
2017-Jun-17 17:00N 65°21' E 012°03'510.8
2017-Jun-17 16:30N 65°26' E 011°56'611.4
2017-Jun-17 16:00N 65°31' E 012°02'611.3
2017-Jun-17 15:30N 65°36' E 012°10'611.6
2017-Jun-17 15:00N 65°41' E 012°15'1111.0
2017-Jun-17 14:00N 65°50' E 012°30'510.7
2017-Jun-17 13:30N 65°54' E 012°37'611.2
2017-Jun-17 13:00N 65°58' E 012°47'510.2
2017-Jun-17 12:30N 65°56' E 012°60'611.5
2017-Jun-17 12:00N 65°52' E 013°09'1 3.0
2017-Jun-17 11:30N 65°51' E 013°11'0 0.0
2017-Jun-17 10:59N 65°51' E 013°11'0 0.0
2017-Jun-17 10:25N 65°51' E 013°11'0 0.0
2017-Jun-17 10:00N 65°51' E 013°11'0 0.0
2017-Jun-17 09:29N 65°51' E 013°11'0 0.0
2017-Jun-17 09:00N 65°51' E 013°11'0 0.0
2017-Jun-17 08:30N 65°51' E 013°11'0 0.0
2017-Jun-17 08:00N 65°51' E 013°11'0 0.0
2017-Jun-17 07:30N 65°51' E 013°11'0 0.0
2017-Jun-17 07:00N 65°51' E 013°11'0 0.0
2017-Jun-17 06:30N 65°51' E 013°11'0 0.0
2017-Jun-17 06:00N 65°51' E 013°11'2 4.3
2017-Jun-17 05:30N 65°53' E 013°09'  

Dump ship's entire track history